LGL196 EPGD-ELLX
Flight info
| Callsign | LGL196 |
|---|---|
| Flight time | N/A |
| Altitude | 36000 |
| Route | DEXIR T671 AGODU L733 BODLA Z717 VIBIS L619 BKD P717 EXOBA DCT ABILU DCT OBOKA DCT BITBU |
| Aircraft | B738/M-SDE2E3FGHIRWXY/LB1 |
Departure
| Time | N/A |
|---|---|
| Airport | Gdańsk Lech Wałęsa Airport (EPGD) |
Arrival
| Time | 2026-04-30 18:45 |
|---|---|
| Airport | Luxembourg-Findel International Airport (ELLX) |
| Time | Latitude | Longitude | Altitude | Speed | Heading |
|---|---|---|---|---|---|
| 2026-04-30 17:39 | 53.41730 | 14.76619 | 36398 ft | 485 kts | 240° |
| 2026-04-30 17:41 | 53.30370 | 14.37485 | 36398 ft | 463 kts | 271° |
| 2026-04-30 17:42 | 53.29733 | 14.26778 | 36396 ft | 463 kts | 269° |
| 2026-04-30 17:43 | 53.27690 | 14.00160 | 36411 ft | 458 kts | 267° |
| 2026-04-30 17:44 | 53.24919 | 13.68557 | 36416 ft | 459 kts | 266° |
| 2026-04-30 17:47 | 53.20547 | 13.21445 | 36419 ft | 457 kts | 265° |
| 2026-04-30 17:48 | 53.17027 | 12.84976 | 36406 ft | 456 kts | 265° |
| 2026-04-30 17:50 | 53.12887 | 12.43611 | 36412 ft | 454 kts | 265° |
| 2026-04-30 17:52 | 53.09686 | 12.12605 | 36420 ft | 454 kts | 264° |
| 2026-04-30 17:54 | 53.04755 | 11.66379 | 36420 ft | 452 kts | 264° |
| 2026-04-30 17:55 | 53.00015 | 11.47188 | 36423 ft | 463 kts | 236° |
| 2026-04-30 17:56 | 52.92039 | 11.30584 | 36420 ft | 463 kts | 232° |
| 2026-04-30 17:58 | 52.79974 | 11.05709 | 36420 ft | 464 kts | 233° |
| 2026-04-30 18:00 | 52.63856 | 10.72727 | 36417 ft | 465 kts | 233° |
| 2026-04-30 18:01 | 52.53744 | 10.52253 | 36415 ft | 461 kts | 232° |
| 2026-04-30 18:02 | 52.42052 | 10.27320 | 36416 ft | 460 kts | 236° |
| 2026-04-30 18:04 | 52.30995 | 10.01846 | 36424 ft | 459 kts | 236° |
| 2026-04-30 18:06 | 52.18314 | 9.66129 | 36407 ft | 457 kts | 246° |
| 2026-04-30 18:08 | 52.08453 | 9.33734 | 36400 ft | 458 kts | 245° |
| 2026-04-30 18:10 | 51.97084 | 8.97038 | 36392 ft | 458 kts | 245° |
| 2026-04-30 18:11 | 51.87006 | 8.64969 | 36379 ft | 456 kts | 244° |
| 2026-04-30 18:13 | 51.79797 | 8.42289 | 36383 ft | 456 kts | 244° |
| 2026-04-30 18:13 | 51.74972 | 8.31231 | 36353 ft | 457 kts | 221° |
| 2026-04-30 18:14 | 51.68908 | 8.24265 | 36374 ft | 460 kts | 212° |
| 2026-04-30 18:15 | 51.52940 | 8.07767 | 36368 ft | 456 kts | 212° |
| 2026-04-30 18:16 | 51.42325 | 7.96781 | 36360 ft | 456 kts | 212° |
| 2026-04-30 18:17 | 51.36948 | 7.91453 | 36349 ft | 456 kts | 209° |
| 2026-04-30 18:18 | 51.28765 | 7.83850 | 36344 ft | 455 kts | 209° |
| 2026-04-30 18:18 | 51.23311 | 7.78789 | 36340 ft | 455 kts | 209° |
| 2026-04-30 18:19 | 51.17858 | 7.73723 | 36338 ft | 455 kts | 209° |
| 2026-04-30 18:19 | 51.12405 | 7.68661 | 36328 ft | 453 kts | 209° |
| 2026-04-30 18:19 | 51.09704 | 7.66155 | 36066 ft | 450 kts | 209° |
| 2026-04-30 18:20 | 51.07018 | 7.63666 | 35308 ft | 455 kts | 209° |
| 2026-04-30 18:20 | 51.04286 | 7.61141 | 34522 ft | 459 kts | 209° |
| 2026-04-30 18:20 | 51.01527 | 7.58594 | 33866 ft | 459 kts | 209° |
| 2026-04-30 18:20 | 50.98803 | 7.56082 | 33171 ft | 460 kts | 209° |
| 2026-04-30 18:21 | 50.96014 | 7.53513 | 32403 ft | 462 kts | 209° |
| 2026-04-30 18:21 | 50.93265 | 7.50985 | 31691 ft | 462 kts | 209° |
| 2026-04-30 18:21 | 50.90492 | 7.48437 | 30965 ft | 463 kts | 209° |
| 2026-04-30 18:21 | 50.87730 | 7.45904 | 30141 ft | 465 kts | 209° |
| 2026-04-30 18:22 | 50.84911 | 7.43323 | 29253 ft | 467 kts | 208° |
| 2026-04-30 18:22 | 50.79289 | 7.38183 | 27556 ft | 470 kts | 208° |
| 2026-04-30 18:22 | 50.76466 | 7.35608 | 26681 ft | 471 kts | 209° |
| 2026-04-30 18:23 | 50.73667 | 7.33040 | 25757 ft | 473 kts | 209° |
| 2026-04-30 18:23 | 50.70879 | 7.30281 | 25092 ft | 468 kts | 211° |
| 2026-04-30 18:23 | 50.68199 | 7.27494 | 24451 ft | 464 kts | 212° |
| 2026-04-30 18:23 | 50.65535 | 7.24692 | 23855 ft | 459 kts | 212° |
| 2026-04-30 18:24 | 50.60282 | 7.19188 | 22495 ft | 453 kts | 211° |
| 2026-04-30 18:24 | 50.57690 | 7.16491 | 21901 ft | 448 kts | 211° |
| 2026-04-30 18:24 | 50.55113 | 7.13819 | 21251 ft | 445 kts | 211° |
| 2026-04-30 18:25 | 50.52549 | 7.11170 | 20623 ft | 442 kts | 211° |
| 2026-04-30 18:25 | 50.47451 | 7.05921 | 19379 ft | 435 kts | 211° |
| 2026-04-30 18:25 | 50.44957 | 7.03362 | 18731 ft | 432 kts | 211° |
| 2026-04-30 18:26 | 50.39983 | 6.98268 | 17559 ft | 425 kts | 211° |
| 2026-04-30 18:26 | 50.37518 | 6.95750 | 16987 ft | 420 kts | 211° |
| 2026-04-30 18:26 | 50.35109 | 6.93294 | 16435 ft | 416 kts | 211° |
| 2026-04-30 18:27 | 50.30324 | 6.88429 | 15283 ft | 408 kts | 211° |
| 2026-04-30 18:27 | 50.27938 | 6.86008 | 14691 ft | 404 kts | 211° |
| 2026-04-30 18:28 | 50.23290 | 6.81299 | 13541 ft | 396 kts | 210° |
| 2026-04-30 18:28 | 50.21011 | 6.78992 | 13033 ft | 391 kts | 210° |
| 2026-04-30 18:28 | 50.16668 | 6.74599 | 12412 ft | 358 kts | 210° |
| 2026-04-30 18:29 | 50.14628 | 6.72540 | 12136 ft | 343 kts | 210° |
| 2026-04-30 18:29 | 50.09005 | 6.66878 | 11337 ft | 305 kts | 210° |
| 2026-04-30 18:30 | 50.05473 | 6.63342 | 10308 ft | 301 kts | 209° |
| 2026-04-30 18:30 | 50.01983 | 6.59846 | 9415 ft | 294 kts | 209° |
| 2026-04-30 18:31 | 50.00303 | 6.58165 | 9324 ft | 286 kts | 208° |
| 2026-04-30 18:31 | 49.96892 | 6.54927 | 9286 ft | 291 kts | 204° |
| 2026-04-30 18:32 | 49.93324 | 6.52065 | 9302 ft | 281 kts | 204° |
| 2026-04-30 18:32 | 49.91636 | 6.50695 | 9287 ft | 266 kts | 204° |
| 2026-04-30 18:32 | 49.88477 | 6.48126 | 9291 ft | 252 kts | 203° |
| 2026-04-30 18:33 | 49.86921 | 6.46867 | 9292 ft | 257 kts | 204° |
| 2026-04-30 18:33 | 49.83724 | 6.44265 | 9297 ft | 258 kts | 204° |
| 2026-04-30 18:33 | 49.82156 | 6.42904 | 9275 ft | 260 kts | 211° |
| 2026-04-30 18:34 | 49.80877 | 6.40931 | 9258 ft | 266 kts | 233° |
| 2026-04-30 18:34 | 49.79002 | 6.36043 | 9039 ft | 264 kts | 236° |
| 2026-04-30 18:34 | 49.78054 | 6.33598 | 8592 ft | 266 kts | 235° |
| 2026-04-30 18:35 | 49.77100 | 6.31166 | 8231 ft | 264 kts | 234° |
| 2026-04-30 18:35 | 49.76153 | 6.28764 | 7827 ft | 262 kts | 234° |
| 2026-04-30 18:35 | 49.75209 | 6.26378 | 7448 ft | 261 kts | 234° |
| 2026-04-30 18:36 | 49.73321 | 6.21610 | 6686 ft | 258 kts | 234° |
| 2026-04-30 18:36 | 49.72393 | 6.19275 | 6322 ft | 257 kts | 233° |
| 2026-04-30 18:36 | 49.70547 | 6.14586 | 5539 ft | 257 kts | 236° |
| 2026-04-30 18:37 | 49.69715 | 6.12146 | 5173 ft | 256 kts | 238° |
| 2026-04-30 18:37 | 49.68907 | 6.09705 | 4786 ft | 257 kts | 238° |
| 2026-04-30 18:37 | 49.68104 | 6.07269 | 4394 ft | 257 kts | 238° |
| 2026-04-30 18:37 | 49.67302 | 6.04801 | 4031 ft | 257 kts | 238° |
| 2026-04-30 18:38 | 49.66510 | 6.02352 | 3653 ft | 256 kts | 238° |
| 2026-04-30 18:38 | 49.65593 | 6.00063 | 3275 ft | 250 kts | 224° |
| 2026-04-30 18:38 | 49.64485 | 5.98038 | 3021 ft | 244 kts | 223° |
| 2026-04-30 18:38 | 49.63396 | 5.96074 | 2995 ft | 237 kts | 223° |
| 2026-04-30 18:39 | 49.62316 | 5.94243 | 2999 ft | 221 kts | 211° |
| 2026-04-30 18:39 | 49.61007 | 5.93334 | 2987 ft | 195 kts | 176° |
| 2026-04-30 18:39 | 49.59805 | 5.93684 | 2997 ft | 167 kts | 147° |
| 2026-04-30 18:39 | 49.58784 | 5.94447 | 2984 ft | 164 kts | 147° |
| 2026-04-30 18:40 | 49.57731 | 5.95181 | 2981 ft | 165 kts | 147° |
| 2026-04-30 18:40 | 49.56701 | 5.95969 | 2979 ft | 163 kts | 137° |
| 2026-04-30 18:40 | 49.56105 | 5.97324 | 2988 ft | 155 kts | 104° |
| 2026-04-30 18:40 | 49.55886 | 5.98981 | 2991 ft | 157 kts | 103° |
| 2026-04-30 18:41 | 49.55647 | 6.00612 | 2994 ft | 156 kts | 102° |
| 2026-04-30 18:41 | 49.55696 | 6.02251 | 2988 ft | 161 kts | 71° |
| 2026-04-30 18:41 | 49.56255 | 6.03730 | 3009 ft | 154 kts | 67° |
| 2026-04-30 18:41 | 49.56720 | 6.05150 | 2986 ft | 143 kts | 70° |
| 2026-04-30 18:42 | 49.57180 | 6.06501 | 2953 ft | 143 kts | 68° |
| 2026-04-30 18:42 | 49.58201 | 6.09263 | 2539 ft | 146 kts | 66° |
| 2026-04-30 18:42 | 49.58689 | 6.10562 | 2358 ft | 134 kts | 66° |
| 2026-04-30 18:45 | 49.62527 | 6.20609 | 1224 ft | 15 kts | 23° |
| 2026-04-30 18:45 | 49.62604 | 6.20660 | 1228 ft | 7 kts | 21° |
| 2026-04-30 18:45 | 49.62620 | 6.20670 | 1228 ft | 0 kts | 21° |
| 2026-04-30 18:46 | 49.62621 | 6.20670 | 1229 ft | 0 kts | 21° |
| 2026-04-30 18:46 | 49.62629 | 6.20675 | 1229 ft | 5 kts | 21° |
| 2026-04-30 18:46 | 49.62706 | 6.20721 | 1231 ft | 18 kts | 19° |
| 2026-04-30 18:46 | 49.62821 | 6.20825 | 1236 ft | 18 kts | 56° |
| 2026-04-30 18:47 | 49.62884 | 6.21018 | 1235 ft | 22 kts | 65° |
| 2026-04-30 18:47 | 49.62955 | 6.21253 | 1232 ft | 26 kts | 63° |
| 2026-04-30 18:47 | 49.63029 | 6.21491 | 1226 ft | 18 kts | 64° |
| 2026-04-30 18:47 | 49.63079 | 6.21651 | 1224 ft | 12 kts | 65° |
| 2026-04-30 18:48 | 49.63081 | 6.21661 | 1224 ft | 0 kts | 65° |
| 2026-04-30 18:48 | 49.63093 | 6.21699 | 1223 ft | 12 kts | 64° |
| 2026-04-30 18:48 | 49.63151 | 6.21873 | 1219 ft | 19 kts | 41° |
| 2026-04-30 18:49 | 49.63256 | 6.21845 | 1226 ft | 16 kts | 330° |
| 2026-04-30 18:49 | 49.63333 | 6.21773 | 1233 ft | 10 kts | 328° |
| 2026-04-30 18:49 | 49.63367 | 6.21741 | 1236 ft | 0 kts | 330° |